Time;durP1;ratioP1;P1;durP2;ratioP2;P2;SDS_P1;SDS_P2;PMS_P1;PMS_P2;Temp;Humidity;BMP_temperature;BMP_pressure;BME280_temperature;BME280_humidity;BME280_pressure;Samples;Min_cycle;Max_cycle;Signal;HPM_P1;HPM_P2
2021/12/09 00:01:02;;;;;;;91.13;36.00;;;1.80;99.90;;;;;;5021329;28;20469;-69
2021/12/09 00:03:54;;;;;;;92.60;35.63;;;1.80;99.90;;;;;;5008795;28;20556;-69
2021/12/09 00:06:42;;;;;;;85.93;31.67;;;1.70;99.90;;;;;;5023019;28;20405;-69
2021/12/09 00:09:28;;;;;;;84.57;34.90;;;1.70;99.90;;;;;;5023658;28;20076;-69
2021/12/09 00:12:13;;;;;;;94.05;37.03;;;1.70;99.90;;;;;;5025959;28;20457;-69
2021/12/09 00:14:58;;;;;;;;;;;1.70;99.90;;;;;;5028745;28;20776;-69
2021/12/09 00:17:44;;;;;;;90.47;37.03;;;1.80;99.90;;;;;;5043171;28;19928;-70
2021/12/09 00:20:29;;;;;;;93.25;33.53;;;1.80;99.90;;;;;;5040086;28;20559;-70
2021/12/09 00:23:18;;;;;;;90.72;34.63;;;1.90;99.90;;;;;;5026523;28;20416;-69
2021/12/09 00:26:04;;;;;;;88.80;31.60;;;2.00;99.90;;;;;;5039486;28;20048;-69
2021/12/09 00:28:50;;;;;;;75.53;28.52;;;1.90;99.90;;;;;;5042681;28;20180;-69
2021/12/09 00:31:35;;;;;;;71.78;26.23;;;1.90;99.90;;;;;;5038723;28;20048;-69
2021/12/09 00:34:30;;;;;;;82.22;31.20;;;1.80;99.90;;;;;;5007761;28;20071;-70
2021/12/09 00:37:32;;;;;;;89.03;29.27;;;1.80;99.90;;;;;;5012632;28;20064;-69
2021/12/09 00:40:17;;;;;;;69.75;27.30;;;1.80;99.90;;;;;;5025077;28;20092;-69
2021/12/09 00:43:04;;;;;;;78.20;30.25;;;1.90;99.90;;;;;;5039623;28;20137;-70
2021/12/09 00:45:49;;;;;;;74.63;28.75;;;1.80;99.90;;;;;;5025852;28;20052;-70
2021/12/09 00:48:35;;;;;;;80.70;31.88;;;1.90;99.90;;;;;;5026288;28;20529;-70
2021/12/09 00:51:21;;;;;;;73.65;31.15;;;1.90;99.90;;;;;;5024248;28;20126;-69
2021/12/09 00:54:07;;;;;;;79.90;28.30;;;1.90;99.90;;;;;;5050669;28;20416;-69
2021/12/09 00:56:53;;;;;;;72.80;27.67;;;1.80;99.90;;;;;;5047028;28;20399;-69
2021/12/09 00:59:38;;;;;;;71.15;25.58;;;1.90;99.90;;;;;;5040423;28;20075;-69
2021/12/09 01:02:24;;;;;;;83.88;27.17;;;1.80;99.90;;;;;;5039741;28;20106;-69
2021/12/09 01:05:10;;;;;;;69.50;25.92;;;1.70;99.90;;;;;;5007749;28;20712;-68
2021/12/09 01:07:56;;;;;;;75.15;25.98;;;1.80;99.90;;;;;;5005418;28;20099;-69
2021/12/09 01:10:42;;;;;;;79.03;26.05;;;1.80;99.90;;;;;;5022061;28;20409;-69
2021/12/09 01:13:28;;;;;;;70.57;25.45;;;1.70;99.90;;;;;;5021886;28;20225;-69
2021/12/09 01:16:13;;;;;;;70.00;25.67;;;1.60;99.90;;;;;;5012017;28;20071;-69
2021/12/09 01:18:59;;;;;;;74.53;25.45;;;1.50;99.90;;;;;;5011553;28;20188;-69
2021/12/09 01:21:44;;;;;;;;;;;1.50;99.90;;;;;;5013238;28;20089;-69
2021/12/09 01:24:30;;;;;;;60.75;22.85;;;1.70;99.90;;;;;;5039579;28;20293;-69
2021/12/09 01:27:16;;;;;;;64.82;22.42;;;1.60;99.90;;;;;;5042760;28;20044;-69
2021/12/09 01:30:08;;;;;;;;;;;1.50;99.90;;;;;;5061942;28;20060;-69
2021/12/09 01:32:55;;;;;;;68.28;24.42;;;1.50;99.90;;;;;;5039025;28;19932;-69
2021/12/09 01:35:46;;;;;;;64.95;23.67;;;1.60;99.90;;;;;;5011118;28;20147;-69
2021/12/09 01:38:33;;;;;;;74.97;25.83;;;1.70;99.90;;;;;;5038305;28;20108;-69
2021/12/09 01:41:20;;;;;;;79.72;27.63;;;1.50;99.90;;;;;;5027019;28;20095;-69
2021/12/09 01:44:05;;;;;;;;;;;1.50;99.90;;;;;;5021958;28;20858;-69
2021/12/09 01:46:52;;;;;;;71.88;25.88;;;1.50;99.90;;;;;;5005747;28;20363;-69
2021/12/09 01:49:37;;;;;;;81.68;26.45;;;1.60;99.90;;;;;;5031662;28;20060;-69
2021/12/09 01:52:23;;;;;;;81.40;26.13;;;1.60;99.90;;;;;;5025281;28;20048;-69
2021/12/09 01:55:11;;;;;;;75.53;26.23;;;1.70;99.90;;;;;;5045696;28;20535;-69
2021/12/09 01:57:57;;;;;;;80.30;26.75;;;1.70;99.90;;;;;;4993147;28;20567;-69
2021/12/09 02:00:42;;;;;;;78.70;28.33;;;1.70;99.90;;;;;;5019867;28;20064;-69
2021/12/09 02:03:28;;;;;;;78.60;27.02;;;1.70;99.90;;;;;;5021987;28;20243;-69
2021/12/09 02:06:15;;;;;;;77.93;26.17;;;1.70;99.90;;;;;;5005569;28;20687;-69
2021/12/09 02:09:01;;;;;;;77.22;25.63;;;1.70;99.90;;;;;;5017002;28;20188;-69
2021/12/09 02:11:46;;;;;;;73.00;25.13;;;1.70;99.90;;;;;;5040788;28;20206;-69
2021/12/09 02:14:32;;;;;;;63.85;23.80;;;1.80;99.90;;;;;;5020382;28;20064;-69
2021/12/09 02:17:18;;;;;;;72.65;25.50;;;1.80;99.90;;;;;;5005147;28;20053;-69
2021/12/09 02:20:04;;;;;;;;;;;1.90;99.90;;;;;;5032240;28;20056;-69
2021/12/09 02:22:51;;;;;;;64.82;23.92;;;1.90;99.90;;;;;;5041581;28;20260;-69
2021/12/09 02:25:44;;;;;;;71.60;25.60;;;1.90;99.90;;;;;;5015278;28;20164;-69
2021/12/09 02:28:30;;;;;;;78.20;26.23;;;1.90;99.90;;;;;;5020137;28;20523;-69
2021/12/09 02:31:16;;;;;;;76.35;26.30;;;1.80;99.90;;;;;;5005556;28;20124;-69
2021/12/09 02:34:03;;;;;;;77.07;25.17;;;1.80;99.90;;;;;;5006508;28;20073;-70
2021/12/09 02:36:50;;;;;;;67.32;22.17;;;1.90;99.90;;;;;;5021254;28;20183;-69
2021/12/09 02:39:36;;;;;;;61.08;21.30;;;1.90;99.90;;;;;;5039488;28;20582;-70
2021/12/09 02:42:24;;;;;;;62.17;19.17;;;1.80;99.90;;;;;;5038680;28;20056;-69
2021/12/09 02:45:11;;;;;;;58.30;18.75;;;1.70;99.90;;;;;;5019796;28;20075;-69
2021/12/09 02:47:56;;;;;;;53.92;17.95;;;1.60;99.90;;;;;;5005406;28;20527;-69
2021/12/09 02:50:42;;;;;;;70.70;19.67;;;1.70;99.90;;;;;;5032873;28;20102;-69
2021/12/09 02:53:27;;;;;;;50.17;16.85;;;1.70;99.90;;;;;;5024530;28;20462;-69
2021/12/09 02:56:13;;;;;;;;;;;1.70;99.90;;;;;;5049542;23;20110;-75
2021/12/09 02:58:58;;;;;;;58.70;19.25;;;1.70;99.90;;;;;;5041150;28;19932;-74
2021/12/09 03:01:56;;;;;;;;;;;1.70;99.90;;;;;;5045977;28;20048;-74
2021/12/09 03:04:48;;;;;;;62.05;22.58;;;1.70;99.90;;;;;;5044968;28;19932;-74
2021/12/09 03:07:38;;;;;;;60.90;21.75;;;1.70;99.90;;;;;;5024652;28;20467;-74
2021/12/09 03:10:25;;;;;;;69.75;22.30;;;1.70;99.90;;;;;;5025198;28;20286;-74
2021/12/09 03:13:11;;;;;;;59.10;22.92;;;1.70;99.90;;;;;;5025880;28;20060;-74
2021/12/09 03:15:57;;;;;;;59.53;21.35;;;1.80;99.90;;;;;;5025107;28;20443;-74
2021/12/09 03:18:50;;;;;;;58.75;21.33;;;1.80;99.90;;;;;;5025198;28;20061;-74
2021/12/09 03:21:39;;;;;;;59.13;21.33;;;1.80;99.90;;;;;;5025128;28;20172;-74
2021/12/09 03:24:24;;;;;;;60.17;20.20;;;1.80;99.90;;;;;;5032667;28;20538;-73
2021/12/09 03:27:10;;;;;;;60.65;19.25;;;1.90;99.90;;;;;;5028894;28;20172;-74
2021/12/09 03:29:56;;;;;;;54.33;19.35;;;1.90;99.90;;;;;;5025540;28;20068;-74
2021/12/09 03:32:41;;;;;;;;;;;1.90;99.90;;;;;;5026684;28;20400;-74
2021/12/09 03:35:26;;;;;;;53.45;18.45;;;1.90;99.90;;;;;;5027751;28;19979;-74
2021/12/09 03:38:11;;;;;;;56.30;19.42;;;1.80;99.90;;;;;;5018007;28;20053;-74
2021/12/09 03:40:57;;;;;;;57.25;19.67;;;1.80;99.90;;;;;;5030129;28;20426;-74
2021/12/09 03:43:43;;;;;;;48.22;17.23;;;1.90;99.90;;;;;;5014910;28;20553;-73
2021/12/09 03:46:28;;;;;;;;;;;2.00;99.90;;;;;;5043111;28;20530;-74
2021/12/09 03:49:14;;;;;;;47.25;16.10;;;2.00;99.90;;;;;;5029610;28;20156;-74
2021/12/09 03:52:00;;;;;;;52.17;17.02;;;1.80;99.90;;;;;;5024935;28;20454;-74
2021/12/09 03:54:46;;;;;;;44.60;16.15;;;1.80;99.90;;;;;;5025292;28;20055;-73
2021/12/09 03:57:32;;;;;;;45.60;15.93;;;2.00;99.90;;;;;;5036055;28;20111;-73
2021/12/09 04:00:17;;;;;;;42.92;15.50;;;2.00;99.90;;;;;;5023781;28;20053;-74
2021/12/09 04:03:03;;;;;;;51.40;16.42;;;1.90;99.90;;;;;;5024419;28;20048;-73
2021/12/09 04:05:49;;;;;;;51.70;17.80;;;1.90;99.90;;;;;;5003982;28;20038;-74
2021/12/09 04:08:35;;;;;;;52.22;16.88;;;1.90;99.90;;;;;;5008426;28;20053;-73
2021/12/09 04:11:21;;;;;;;43.35;16.25;;;1.80;99.90;;;;;;5008700;28;20120;-73
2021/12/09 04:14:07;;;;;;;59.50;18.63;;;1.90;99.90;;;;;;5033314;28;20061;-74
2021/12/09 04:16:53;;;;;;;48.97;17.23;;;1.90;99.90;;;;;;5047052;28;20106;-74
2021/12/09 04:19:46;;;;;;;46.78;17.73;;;2.00;99.90;;;;;;5036538;28;20526;-74
2021/12/09 04:22:32;;;;;;;47.58;16.45;;;2.10;99.90;;;;;;5027641;28;20562;-73
2021/12/09 04:25:19;;;;;;;44.33;16.92;;;2.00;99.90;;;;;;5026991;28;20576;-74
2021/12/09 04:28:04;;;;;;;43.95;16.27;;;2.00;99.90;;;;;;5028071;28;20053;-73
2021/12/09 04:30:50;;;;;;;48.17;17.98;;;2.00;99.90;;;;;;5028126;28;20115;-73
2021/12/09 04:33:35;;;;;;;48.67;16.15;;;2.00;99.90;;;;;;5029914;28;20147;-74
2021/12/09 04:36:21;;;;;;;;;;;2.00;99.90;;;;;;5028819;28;20060;-73
2021/12/09 04:39:07;;;;;;;47.35;16.48;;;2.00;99.90;;;;;;5027058;28;19964;-74
2021/12/09 04:41:54;;;;;;;52.08;17.08;;;2.00;99.90;;;;;;5021689;28;20562;-74
2021/12/09 04:44:39;;;;;;;39.15;16.88;;;2.00;99.90;;;;;;5025517;28;20047;-74
2021/12/09 04:47:25;;;;;;;48.58;17.52;;;2.00;99.90;;;;;;5026696;28;20123;-73
2021/12/09 04:50:11;;;;;;;;;;;2.00;99.90;;;;;;5028175;28;20098;-73
2021/12/09 04:52:56;;;;;;;45.50;16.38;;;1.90;99.90;;;;;;5024074;28;19928;-73
2021/12/09 04:55:41;;;;;;;55.35;20.10;;;1.90;99.90;;;;;;5027654;28;20111;-74
2021/12/09 04:58:28;;;;;;;60.72;18.35;;;1.90;99.90;;;;;;5027197;28;20107;-73
2021/12/09 05:01:14;;;;;;;59.28;19.75;;;1.90;99.90;;;;;;5027330;28;20060;-73
2021/12/09 05:04:01;;;;;;;49.03;18.40;;;1.80;99.90;;;;;;5028452;28;20624;-73
2021/12/09 05:06:47;;;;;;;55.22;18.42;;;1.90;99.90;;;;;;5026734;28;20053;-73
2021/12/09 05:09:38;;;;;;;46.17;17.08;;;1.90;99.90;;;;;;5027848;28;20060;-73
2021/12/09 05:12:23;;;;;;;42.45;16.48;;;1.90;99.90;;;;;;5028950;28;20090;-74
2021/12/09 05:15:09;;;;;;;;;;;1.80;99.90;;;;;;5039176;28;20423;-74
2021/12/09 05:17:54;;;;;;;42.50;17.08;;;1.90;99.90;;;;;;5025968;28;20331;-74
2021/12/09 05:20:39;;;;;;;45.88;17.20;;;2.00;99.90;;;;;;5026238;28;20527;-74
2021/12/09 05:23:25;;;;;;;49.05;17.88;;;2.00;99.90;;;;;;5026066;28;20585;-73
2021/12/09 05:26:10;;;;;;;50.75;17.30;;;1.90;99.90;;;;;;5025941;28;20099;-73
2021/12/09 05:29:04;;;;;;;48.13;17.27;;;1.90;99.90;;;;;;5025339;28;20259;-73
2021/12/09 05:32:07;;;;;;;;;;;1.90;99.90;;;;;;5021529;28;20526;-73
2021/12/09 05:34:53;;;;;;;50.03;18.25;;;1.80;99.90;;;;;;5040387;28;19927;-73
2021/12/09 05:37:38;;;;;;;56.60;19.80;;;1.90;99.90;;;;;;5026182;28;20047;-74
2021/12/09 05:40:24;;;;;;;55.22;20.00;;;1.80;99.90;;;;;;5026261;28;20052;-73
2021/12/09 05:43:09;;;;;;;50.85;20.77;;;1.80;99.90;;;;;;5034491;28;20066;-73
2021/12/09 05:45:55;;;;;;;53.58;22.35;;;1.80;99.90;;;;;;5036944;28;20056;-73
2021/12/09 05:48:41;;;;;;;45.47;19.17;;;1.80;99.90;;;;;;5028122;28;20080;-73
2021/12/09 05:51:26;;;;;;;42.35;17.02;;;1.70;99.90;;;;;;5011021;28;20045;-72
2021/12/09 05:54:12;;;;;;;44.17;16.95;;;1.60;99.90;;;;;;5026824;28;20135;-73
2021/12/09 05:56:58;;;;;;;46.75;16.75;;;1.60;99.90;;;;;;5023855;28;20518;-73
2021/12/09 05:59:44;;;;;;;43.08;15.65;;;1.60;99.90;;;;;;5019945;28;20188;-75
2021/12/09 06:02:32;;;;;;;47.20;15.85;;;1.70;99.90;;;;;;5025377;28;20052;-75
2021/12/09 06:05:18;;;;;;;37.72;14.80;;;1.70;99.90;;;;;;5024668;28;20315;-76
2021/12/09 06:08:05;;;;;;;51.45;17.63;;;1.60;99.90;;;;;;5024770;28;20048;-75
2021/12/09 06:10:51;;;;;;;41.33;18.67;;;1.60;99.90;;;;;;5025566;28;20419;-75
2021/12/09 06:13:38;;;;;;;44.25;16.08;;;1.50;99.90;;;;;;5033404;28;20040;-75
2021/12/09 06:16:24;;;;;;;45.75;16.67;;;1.40;99.90;;;;;;5042820;28;20434;-75
2021/12/09 06:19:10;;;;;;;39.95;16.15;;;1.40;99.90;;;;;;5030970;28;20885;-75
2021/12/09 06:21:55;;;;;;;;;;;1.40;99.90;;;;;;5023651;28;20057;-74
2021/12/09 06:24:41;;;;;;;45.63;17.33;;;1.30;99.90;;;;;;5025994;28;20424;-75
2021/12/09 06:27:27;;;;;;;64.13;22.08;;;1.20;99.90;;;;;;5019590;28;20059;-75
2021/12/09 06:30:14;;;;;;;59.63;23.45;;;1.10;99.90;;;;;;5023841;28;20060;-75
2021/12/09 06:33:00;;;;;;;73.22;34.42;;;1.10;99.90;;;;;;5025981;28;20064;-75
2021/12/09 06:35:45;;;;;;;;;;;1.20;99.90;;;;;;5025447;28;20820;-74
2021/12/09 06:38:31;;;;;;;69.25;29.13;;;1.40;99.90;;;;;;5019797;28;19928;-75
2021/12/09 06:41:16;;;;;;;79.20;31.70;;;1.30;99.90;;;;;;5023696;28;20064;-75
2021/12/09 06:44:02;;;;;;;79.70;31.27;;;1.20;99.90;;;;;;5037305;28;20092;-75
2021/12/09 06:46:48;;;;;;;66.32;28.45;;;1.30;99.90;;;;;;5043556;28;20056;-75
2021/12/09 06:49:33;;;;;;;73.38;29.13;;;1.00;99.90;;;;;;5011543;28;20060;-75
2021/12/09 06:52:19;;;;;;;;;;;0.90;99.90;;;;;;5024713;28;20426;-75
2021/12/09 06:55:06;;;;;;;73.35;32.10;;;0.80;99.90;;;;;;5023907;28;20544;-75
2021/12/09 06:57:52;;;;;;;80.07;32.45;;;0.80;99.90;;;;;;5024445;28;20103;-75
2021/12/09 07:00:41;;;;;;;81.70;32.45;;;0.70;99.90;;;;;;5018981;28;20044;-75
2021/12/09 07:03:28;;;;;;;87.20;33.92;;;0.70;99.90;;;;;;5023859;28;20348;-75
2021/12/09 07:06:14;;;;;;;78.63;33.13;;;0.80;99.90;;;;;;5024352;28;20156;-75
2021/12/09 07:09:01;;;;;;;95.35;34.65;;;0.70;99.90;;;;;;5023598;28;20057;-75
2021/12/09 07:11:51;;;;;;;85.28;34.42;;;0.70;99.90;;;;;;5024800;28;20048;-75
2021/12/09 07:14:36;;;;;;;89.82;34.60;;;0.70;99.90;;;;;;5039302;28;20051;-75
2021/12/09 07:17:21;;;;;;;;;;;0.50;99.90;;;;;;5024600;28;20114;-75
2021/12/09 07:20:11;;;;;;;90.95;34.47;;;0.50;99.90;;;;;;5022843;28;20067;-75
2021/12/09 07:22:58;;;;;;;79.60;33.30;;;0.60;99.90;;;;;;5027831;28;20057;-75
2021/12/09 07:25:44;;;;;;;87.85;33.40;;;0.50;99.90;;;;;;5023617;28;20056;-75
2021/12/09 07:28:29;;;;;;;;;;;0.40;99.90;;;;;;5024595;28;20148;-75
2021/12/09 07:31:16;;;;;;;61.72;24.73;;;0.40;99.90;;;;;;5024791;28;19947;-75
2021/12/09 07:34:01;;;;;;;83.70;30.23;;;0.40;99.90;;;;;;5025682;28;20079;-75
2021/12/09 07:36:47;;;;;;;81.72;31.60;;;0.20;99.90;;;;;;5022533;28;20674;-74
2021/12/09 07:39:33;;;;;;;90.45;31.50;;;0.20;99.90;;;;;;5004298;28;20065;-75
2021/12/09 07:42:19;;;;;;;88.20;37.55;;;0.20;99.90;;;;;;5012889;28;20188;-75
2021/12/09 07:45:06;;;;;;;81.65;32.95;;;0.00;99.90;;;;;;5035207;28;20108;-75
2021/12/09 07:47:52;;;;;;;88.22;36.17;;;0.00;99.90;;;;;;5028640;28;20056;-75
2021/12/09 07:50:38;;;;;;;93.30;33.28;;;0.10;99.90;;;;;;5027639;28;20191;-74
2021/12/09 07:53:24;;;;;;;84.63;33.33;;;0.10;99.90;;;;;;5028511;28;20060;-75
2021/12/09 07:56:09;;;;;;;83.28;29.50;;;0.10;99.90;;;;;;5027790;28;20048;-75
2021/12/09 07:58:55;;;;;;;;;;;0.20;99.90;;;;;;5025417;28;20056;-74
2021/12/09 08:01:41;;;;;;;74.67;29.93;;;0.40;99.90;;;;;;5007700;28;19932;-74
2021/12/09 08:04:26;;;;;;;79.40;28.73;;;0.60;99.90;;;;;;5009966;28;20061;-74
2021/12/09 08:07:12;;;;;;;78.20;30.42;;;0.70;99.90;;;;;;5026224;28;20061;-75
2021/12/09 08:09:57;;;;;;;;;;;0.80;99.90;;;;;;5027632;28;20068;-74
2021/12/09 08:12:43;;;;;;;67.07;21.93;;;0.80;99.90;;;;;;5031119;28;19955;-75
2021/12/09 08:15:48;;;;;;;61.60;20.90;;;0.80;99.90;;;;;;5038927;28;20808;-74
2021/12/09 08:18:58;;;;;;;62.80;21.15;;;0.90;99.90;;;;;;5046463;28;20462;-75
2021/12/09 08:21:42;;;;;;;69.35;21.98;;;0.80;99.90;;;;;;5027562;28;20055;-75
2021/12/09 08:24:27;;;;;;;;;;;0.90;99.90;;;;;;5020112;28;20061;-74
2021/12/09 08:27:13;;;;;;;122.72;48.95;;;1.00;99.90;;;;;;5026384;28;19931;-74
2021/12/09 08:30:01;;;;;;;;;;;1.10;99.90;;;;;;5027571;28;20057;-75
2021/12/09 08:32:47;;;;;;;87.97;32.83;;;1.20;99.90;;;;;;5027531;28;20082;-75
2021/12/09 08:35:34;;;;;;;92.50;36.88;;;1.30;99.90;;;;;;5027068;28;20107;-74
2021/12/09 08:38:20;;;;;;;60.67;22.70;;;1.30;99.90;;;;;;5025750;28;20057;-74
2021/12/09 08:41:06;;;;;;;64.38;18.98;;;1.40;99.90;;;;;;5027453;28;20052;-74
2021/12/09 08:43:51;;;;;;;52.30;18.67;;;1.60;99.90;;;;;;5022365;28;20519;-74
2021/12/09 08:46:37;;;;;;;57.95;18.75;;;1.60;99.90;;;;;;5026700;28;20109;-75
2021/12/09 08:49:23;;;;;;;57.50;20.48;;;1.40;99.90;;;;;;5025738;28;20659;-75
2021/12/09 08:52:08;;;;;;;55.33;20.30;;;1.30;99.90;;;;;;5026980;28;20535;-74
2021/12/09 08:54:53;;;;;;;;;;;1.40;99.90;;;;;;5029755;28;20103;-78
2021/12/09 08:57:42;;;;;;;59.33;22.40;;;1.60;99.90;;;;;;5080650;22;19948;-80
2021/12/09 09:00:29;;;;;;;;;;;1.70;99.90;;;;;;5018622;28;20586;-79
2021/12/09 09:03:16;;;;;;;50.47;21.08;;;1.90;99.90;;;;;;5032313;28;19975;-79
2021/12/09 09:06:02;;;;;;;;;;;1.90;99.90;;;;;;5031728;28;20151;-80
2021/12/09 09:08:51;;;;;;;58.30;24.08;;;2.10;99.90;;;;;;5031329;28;19935;-79
2021/12/09 09:11:36;;;;;;;68.43;26.13;;;2.20;99.90;;;;;;5017689;28;20688;-81
2021/12/09 09:14:22;;;;;;;57.55;24.60;;;2.30;99.90;;;;;;5027609;28;20052;-80
2021/12/09 09:17:08;;;;;;;;;;;2.20;99.90;;;;;;5016182;28;20128;-79
2021/12/09 09:19:53;;;;;;;55.80;25.70;;;2.40;99.90;;;;;;5040765;28;19928;-79
2021/12/09 09:22:40;;;;;;;41.30;21.17;;;2.50;99.90;;;;;;5038338;28;20149;-80
2021/12/09 09:25:29;;;;;;;40.70;20.02;;;2.50;99.90;;;;;;5043166;28;20097;-78
2021/12/09 09:28:16;;;;;;;41.90;18.00;;;2.60;99.90;;;;;;5028660;28;20060;-81
2021/12/09 09:31:03;;;;;;;35.17;17.92;;;2.70;99.90;;;;;;5028155;28;20060;-80
2021/12/09 09:33:49;;;;;;;37.35;20.00;;;2.80;99.90;;;;;;5014798;28;20060;-80
2021/12/09 09:37:01;;;;;;;;;;;3.00;99.90;;;;;;5026574;28;20140;-80
2021/12/09 09:40:30;;;;;;;53.05;25.05;;;3.00;99.90;;;;;;5038429;28;19963;-82
2021/12/09 09:43:31;;;;;;;50.28;21.08;;;3.00;99.90;;;;;;5029956;28;20111;-80
2021/12/09 09:46:27;;;;;;;45.38;20.92;;;2.90;99.90;;;;;;5039477;28;20231;-80
2021/12/09 09:49:13;;;;;;;47.60;24.70;;;2.90;99.90;;;;;;5025577;28;20056;-79
2021/12/09 09:52:00;;;;;;;38.90;20.23;;;3.00;99.90;;;;;;5023243;28;20052;-80
2021/12/09 09:54:45;;;;;;;50.45;22.48;;;3.00;99.90;;;;;;5013371;28;20135;-81
2021/12/09 09:57:30;;;;;;;38.78;19.05;;;3.20;99.90;;;;;;5011492;28;20766;-80
2021/12/09 10:00:18;;;;;;;45.30;21.77;;;3.30;99.90;;;;;;5026310;28;20096;-80
2021/12/09 10:03:10;;;;;;;42.00;21.27;;;3.30;99.90;;;;;;5026492;28;20111;-80
2021/12/09 10:05:57;;;;;;;30.70;20.30;;;3.40;99.90;;;;;;5013528;28;20057;-81
2021/12/09 10:08:43;;;;;;;42.50;24.52;;;3.50;99.90;;;;;;5021792;28;20091;-82
2021/12/09 10:11:28;;;;;;;54.03;25.77;;;3.60;99.90;;;;;;5030980;28;20056;-80
2021/12/09 10:14:19;;;;;;;50.55;25.95;;;3.60;99.90;;;;;;5033943;28;20131;-81
2021/12/09 10:17:07;;;;;;;57.38;24.02;;;3.70;99.90;;;;;;5027002;28;20048;-79
2021/12/09 10:19:57;;;;;;;48.83;24.60;;;3.90;99.90;;;;;;5015180;28;20057;-80
2021/12/09 10:22:42;;;;;;;40.97;23.77;;;3.90;99.90;;;;;;5021047;28;20083;-80
2021/12/09 10:25:28;;;;;;;44.58;22.15;;;3.90;99.90;;;;;;5016944;28;20130;-80
2021/12/09 10:28:23;;;;;;;37.35;19.77;;;3.90;99.90;;;;;;5024654;28;20568;-81
2021/12/09 10:31:17;;;;;;;45.55;23.33;;;3.90;99.90;;;;;;5013047;28;20119;-79
2021/12/09 10:34:28;;;;;;;59.03;31.73;;;3.90;99.90;;;;;;5028451;28;20052;-80
2021/12/09 10:37:20;;;;;;;38.97;18.75;;;3.90;99.90;;;;;;5023129;28;20060;-80
2021/12/09 10:40:14;;;;;;;32.47;15.63;;;3.90;99.90;;;;;;5008147;28;20422;-80
2021/12/09 10:43:03;;;;;;;29.88;14.82;;;3.90;99.90;;;;;;5024333;28;20099;-79
2021/12/09 10:45:48;;;;;;;24.58;16.02;;;4.00;99.90;;;;;;5018252;28;20056;-80
2021/12/09 10:48:40;;;;;;;27.42;14.98;;;4.00;99.90;;;;;;5030774;28;20056;-81
2021/12/09 10:51:37;;;;;;;32.75;15.63;;;4.20;99.90;;;;;;5006807;28;20593;-81
2021/12/09 10:54:34;;;;;;;35.33;15.55;;;4.30;99.90;;;;;;5026545;28;20415;-79
2021/12/09 10:57:29;;;;;;;34.85;15.27;;;4.40;99.90;;;;;;5027207;28;20432;-81
2021/12/09 11:00:41;;;;;;;28.27;15.45;;;4.50;99.90;;;;;;5013723;28;20060;-79
2021/12/09 11:03:37;;;;;;;26.70;16.40;;;4.50;99.90;;;;;;4999979;28;20167;-80
2021/12/09 11:06:37;;;;;;;22.40;12.00;;;4.50;99.90;;;;;;4996965;28;20065;-80
2021/12/09 11:09:24;;;;;;;29.70;14.05;;;4.50;99.90;;;;;;5015531;28;20056;-81
2021/12/09 11:12:27;;;;;;;26.80;12.52;;;4.50;99.90;;;;;;5031814;28;20446;-81
2021/12/09 11:15:13;;;;;;;24.17;11.23;;;4.60;99.90;;;;;;5042540;28;20150;-81
2021/12/09 11:18:07;;;;;;;29.15;13.95;;;4.70;99.90;;;;;;5033736;28;20056;-83
2021/12/09 11:20:53;;;;;;;35.75;12.98;;;4.90;99.90;;;;;;4998557;28;20048;-80
2021/12/09 11:23:50;;;;;;;18.85;8.68;;;5.20;99.90;;;;;;5007978;28;20072;-81
2021/12/09 11:26:55;;;;;;;26.67;11.13;;;5.20;99.90;;;;;;5050949;28;20681;-81
2021/12/09 11:29:48;;;;;;;22.73;9.65;;;5.20;99.90;;;;;;5020293;28;20048;-80
2021/12/09 11:35:25;;;;;;;19.85;10.55;;;5.10;99.90;;;;;;5033254;28;20107;-79
2021/12/09 11:38:41;;;;;;;47.42;19.52;;;5.20;99.90;;;;;;5032838;28;20048;-80
2021/12/09 11:41:33;;;;;;;21.75;9.90;;;5.30;99.90;;;;;;5026469;28;20065;-81
2021/12/09 11:44:23;;;;;;;19.80;8.55;;;5.40;99.90;;;;;;5029905;28;20063;-80
2021/12/09 11:47:08;;;;;;;;;;;5.50;99.90;;;;;;5010344;28;20045;-80
2021/12/09 11:50:18;;;;;;;20.42;7.90;;;5.50;99.90;;;;;;5025054;28;19932;-79
2021/12/09 11:53:07;;;;;;;19.60;9.13;;;5.40;99.90;;;;;;5016339;28;20136;-80
2021/12/09 11:59:17;;;;;;;19.80;10.60;;;5.40;99.90;;;;;;5032565;28;20201;-80
2021/12/09 12:12:27;;;;;;;20.80;9.75;;;6.10;99.90;;;;;;5033363;28;20136;-79
2021/12/09 12:18:49;;;;;;;25.42;10.07;;;6.10;99.90;;;;;;5051042;28;20071;-81
2021/12/09 12:21:49;;;;;;;21.25;9.50;;;6.00;99.90;;;;;;5020526;28;20196;-81
2021/12/09 12:27:59;;;;;;;27.23;9.57;;;5.90;99.90;;;;;;5029189;28;20223;-79
2021/12/09 12:37:10;;;;;;;28.00;11.43;;;5.90;99.90;;;;;;5034456;28;20576;-81
2021/12/09 12:40:11;;;;;;;28.63;9.27;;;5.80;99.90;;;;;;5037574;28;20053;-81
2021/12/09 12:43:13;;;;;;;29.70;11.40;;;5.80;99.90;;;;;;5028430;28;20403;-79
2021/12/09 12:46:11;;;;;;;21.58;9.38;;;5.70;99.90;;;;;;5035107;28;20048;-79
2021/12/09 12:52:07;;;;;;;34.42;10.18;;;5.80;99.90;;;;;;5046686;28;20048;-79
2021/12/09 12:55:25;;;;;;;31.15;11.02;;;6.00;99.90;;;;;;5042411;28;20418;-79
2021/12/09 12:58:10;;;;;;;27.92;9.98;;;6.10;99.90;;;;;;5015838;28;20060;-79
2021/12/09 13:01:13;;;;;;;;;;;6.10;99.90;;;;;;5011681;28;20053;-79
2021/12/09 13:04:10;;;;;;;25.10;8.32;;;6.00;99.90;;;;;;5030696;28;20525;-80
2021/12/09 13:07:02;;;;;;;18.20;7.10;;;6.00;99.90;;;;;;5031674;28;20064;-81
2021/12/09 13:10:24;;;;;;;27.55;7.20;;;6.00;99.90;;;;;;5026244;28;20061;-80
2021/12/09 13:13:03;;;;;;;25.70;9.07;;;6.00;99.90;;;;;;5049875;28;20071;-80
2021/12/09 13:16:21;;;;;;;25.95;8.73;;;5.80;99.90;;;;;;5040524;28;20067;-81
2021/12/09 13:19:20;;;;;;;26.55;10.88;;;5.80;99.90;;;;;;5055002;28;20130;-80
2021/12/09 13:22:34;;;;;;;19.30;7.70;;;5.90;99.90;;;;;;5044455;28;20052;-80
2021/12/09 13:25:29;;;;;;;22.85;7.00;;;5.90;99.90;;;;;;5036799;28;20492;-79
2021/12/09 13:28:15;;;;;;;22.25;6.78;;;5.90;99.90;;;;;;5017280;28;20056;-79
2021/12/09 13:31:12;;;;;;;25.35;6.55;;;5.90;99.90;;;;;;5032927;28;20412;-81
2021/12/09 13:34:10;;;;;;;17.30;7.03;;;5.80;99.90;;;;;;5014131;28;20155;-81
2021/12/09 13:45:47;;;;;;;20.17;7.38;;;5.70;99.90;;;;;;4998950;28;20078;-79
2021/12/09 13:55:35;;;;;;;26.65;8.38;;;5.40;99.90;;;;;;5031801;28;20060;-80
2021/12/09 13:58:22;;;;;;;30.73;8.25;;;5.30;99.90;;;;;;5014967;28;20122;-80
2021/12/09 14:01:07;;;;;;;26.33;7.95;;;5.30;99.90;;;;;;5031232;28;20335;-80
2021/12/09 14:03:53;;;;;;;21.75;8.35;;;5.20;99.90;;;;;;5031463;28;20056;-81
2021/12/09 14:06:48;;;;;;;21.60;8.70;;;5.20;99.90;;;;;;5016995;28;20048;-80
2021/12/09 14:09:34;;;;;;;21.92;8.50;;;5.20;99.90;;;;;;5026723;28;20052;-84
2021/12/09 14:12:20;;;;;;;25.08;6.68;;;5.20;99.90;;;;;;5022882;28;20052;-79
2021/12/09 14:15:15;;;;;;;10.60;6.35;;;5.10;99.90;;;;;;5051660;28;20152;-80
2021/12/09 14:18:06;;;;;;;24.15;10.20;;;5.00;99.90;;;;;;5044638;28;20064;-80
2021/12/09 14:20:51;;;;;;;20.83;10.02;;;5.10;99.90;;;;;;5035250;28;20086;-82
2021/12/09 14:23:37;;;;;;;21.20;8.23;;;5.00;99.90;;;;;;5018084;28;20061;-83
2021/12/09 14:26:23;;;;;;;19.13;6.70;;;5.00;99.90;;;;;;5014015;28;20051;-81
2021/12/09 14:29:13;;;;;;;21.02;7.60;;;5.00;99.90;;;;;;5028930;28;20045;-80
2021/12/09 14:32:02;;;;;;;20.15;7.00;;;4.90;99.90;;;;;;5029034;28;20677;-81
2021/12/09 14:34:55;;;;;;;20.42;8.05;;;4.90;99.90;;;;;;5016902;28;20179;-81
2021/12/09 14:37:55;;;;;;;20.38;6.78;;;4.90;99.90;;;;;;5019265;28;20045;-80
2021/12/09 14:40:48;;;;;;;16.85;7.10;;;4.80;99.90;;;;;;5013288;28;20147;-79
2021/12/09 14:43:33;;;;;;;18.73;7.00;;;4.80;99.90;;;;;;5038548;28;20258;-81
2021/12/09 14:46:34;;;;;;;16.98;6.78;;;4.90;99.90;;;;;;5027097;28;20173;-80
2021/12/09 14:49:23;;;;;;;13.40;6.85;;;4.90;99.90;;;;;;5047645;28;20056;-80
2021/12/09 14:52:10;;;;;;;19.52;7.80;;;4.80;99.90;;;;;;5048822;28;20416;-78
2021/12/09 14:55:17;;;;;;;19.25;7.63;;;4.70;99.90;;;;;;5022435;28;20057;-80
2021/12/09 14:58:09;;;;;;;21.50;7.20;;;4.60;99.90;;;;;;5008487;28;20161;-79
2021/12/09 15:01:02;;;;;;;22.20;10.05;;;4.60;99.90;;;;;;5021524;28;20107;-79
2021/12/09 15:04:13;;;;;;;22.65;9.73;;;4.50;99.90;;;;;;5028732;28;20075;-80
2021/12/09 15:07:08;;;;;;;26.35;9.98;;;4.60;99.90;;;;;;5027585;28;20825;-82
2021/12/09 15:10:19;;;;;;;24.83;10.00;;;4.50;99.90;;;;;;5029777;28;20156;-79
2021/12/09 15:13:07;;;;;;;30.80;10.10;;;4.40;99.90;;;;;;5028858;28;20049;-81
2021/12/09 15:16:03;;;;;;;15.98;8.32;;;4.30;99.90;;;;;;5026649;28;20107;-82
2021/12/09 15:18:50;;;;;;;33.88;11.32;;;4.30;99.90;;;;;;5009028;28;20064;-80
2021/12/09 15:21:35;;;;;;;26.48;9.82;;;4.30;99.90;;;;;;5010258;28;20076;-80
2021/12/09 15:24:22;;;;;;;32.85;10.15;;;4.30;99.90;;;;;;5010152;28;20199;-82
2021/12/09 15:27:08;;;;;;;;;;;4.40;99.90;;;;;;5022756;28;20107;-80
2021/12/09 15:29:53;;;;;;;14.68;7.70;;;4.20;99.90;;;;;;5023026;28;20059;-79